createdAt,value
2022-09-29T00:01:02.152Z,3.30
2022-09-29T00:03:31.105Z,3.40
2022-09-29T00:05:57.939Z,3.30
2022-09-29T00:08:26.873Z,3.20
2022-09-29T00:10:54.570Z,3.20
2022-09-29T00:13:21.665Z,3.20
2022-09-29T00:15:56.518Z,3.20
2022-09-29T00:18:23.894Z,3.30
2022-09-29T00:20:59.415Z,3.40
2022-09-29T00:23:27.377Z,3.40
2022-09-29T00:26:06.032Z,3.30
2022-09-29T00:28:34.582Z,3.40
2022-09-29T00:31:02.949Z,3.40
2022-09-29T00:33:30.703Z,3.40
2022-09-29T00:36:02.229Z,3.40
2022-09-29T00:38:30.109Z,3.40
2022-09-29T00:40:57.958Z,3.30
2022-09-29T00:43:45.727Z,3.30
2022-09-29T00:46:15.776Z,3.30
2022-09-29T00:48:44.006Z,3.20
2022-09-29T00:51:12.379Z,3.30
2022-09-29T00:53:42.915Z,3.30
2022-09-29T00:56:12.911Z,3.30
2022-09-29T00:58:44.371Z,3.20
2022-09-29T01:01:12.093Z,3.20
2022-09-29T01:03:43.631Z,3.10
2022-09-29T01:06:17.525Z,3.20
2022-09-29T01:08:48.598Z,3.10
2022-09-29T01:11:16.591Z,3.00
2022-09-29T01:13:44.350Z,3.10
2022-09-29T01:16:11.206Z,3.00
2022-09-29T01:18:42.271Z,3.00
2022-09-29T01:21:23.879Z,3.20
2022-09-29T01:24:21.073Z,3.10
2022-09-29T01:27:09.412Z,3.00
2022-09-29T01:30:01.799Z,3.10
2022-09-29T01:32:55.744Z,2.90
2022-09-29T01:35:30.001Z,3.00
2022-09-29T01:38:14.367Z,2.90
2022-09-29T01:40:48.497Z,3.00
2022-09-29T01:43:18.643Z,2.90
2022-09-29T01:45:53.313Z,2.90
2022-09-29T01:48:25.596Z,2.80
2022-09-29T01:50:56.716Z,2.70
2022-09-29T01:53:28.537Z,2.50
2022-09-29T01:56:00.494Z,2.60
2022-09-29T01:58:32.784Z,2.70
2022-09-29T02:01:06.719Z,2.80
2022-09-29T02:03:37.258Z,2.70
2022-09-29T02:06:08.411Z,2.80
2022-09-29T02:08:40.366Z,2.80
2022-09-29T02:11:09.789Z,2.70
2022-09-29T02:13:41.677Z,2.60
2022-09-29T02:16:12.301Z,2.60
2022-09-29T02:18:47.584Z,2.60
2022-09-29T02:21:15.202Z,2.60
2022-09-29T02:23:42.040Z,2.60
2022-09-29T02:26:10.436Z,2.50
2022-09-29T02:28:37.733Z,2.40
2022-09-29T02:31:05.233Z,2.50
2022-09-29T02:33:32.072Z,2.40
2022-09-29T02:36:12.322Z,2.40
2022-09-29T02:38:47.554Z,2.30
2022-09-29T02:41:28.459Z,2.20
2022-09-29T02:44:16.360Z,2.20
2022-09-29T02:46:56.008Z,2.30
2022-09-29T02:49:36.744Z,2.20
2022-09-29T02:52:15.887Z,2.20
2022-09-29T02:54:53.015Z,2.20
2022-09-29T02:57:25.538Z,2.10
2022-09-29T02:59:59.968Z,2.10
2022-09-29T03:02:27.744Z,2.00
2022-09-29T03:04:54.558Z,2.00
2022-09-29T03:07:25.168Z,2.10
2022-09-29T03:09:52.542Z,2.20
2022-09-29T03:12:22.010Z,2.20
2022-09-29T03:14:48.736Z,2.40
2022-09-29T03:17:16.128Z,2.40
2022-09-29T03:19:42.872Z,2.40
2022-09-29T03:22:09.784Z,2.40
2022-09-29T03:24:38.481Z,2.30
2022-09-29T03:27:05.239Z,2.30
2022-09-29T03:29:32.214Z,2.30
2022-09-29T03:31:59.597Z,2.20
2022-09-29T03:34:26.292Z,2.30
2022-09-29T03:36:53.071Z,2.20
2022-09-29T03:39:20.410Z,2.20
2022-09-29T03:41:48.592Z,2.10
2022-09-29T03:44:15.321Z,2.20
2022-09-29T03:46:42.992Z,2.20
2022-09-29T03:49:10.849Z,2.20
2022-09-29T03:51:38.215Z,2.10
2022-09-29T03:54:05.980Z,2.00
2022-09-29T03:56:33.108Z,2.00
2022-09-29T03:59:01.282Z,2.00
2022-09-29T04:01:28.617Z,2.00
2022-09-29T04:03:55.328Z,1.90
2022-09-29T04:06:22.024Z,1.80
2022-09-29T04:08:49.354Z,1.60
2022-09-29T04:11:16.160Z,1.60
2022-09-29T04:13:42.913Z,1.80
2022-09-29T04:16:11.654Z,1.80
2022-09-29T04:18:38.455Z,1.70
2022-09-29T04:21:07.287Z,1.60
2022-09-29T04:23:35.290Z,1.70
2022-09-29T04:26:02.548Z,1.70
2022-09-29T04:28:31.999Z,1.70
2022-09-29T04:30:58.856Z,1.60
2022-09-29T04:33:26.948Z,1.60
2022-09-29T04:35:54.252Z,1.60
2022-09-29T04:38:20.956Z,1.60
2022-09-29T04:40:48.113Z,1.60
2022-09-29T04:43:15.716Z,1.70
2022-09-29T04:45:42.649Z,1.70
2022-09-29T04:48:09.503Z,1.60
2022-09-29T04:50:38.410Z,1.70
2022-09-29T04:53:05.227Z,1.70
2022-09-29T04:55:32.000Z,1.60
2022-09-29T04:57:59.347Z,1.70
2022-09-29T05:00:26.111Z,1.70
2022-09-29T05:02:52.844Z,1.70
2022-09-29T05:05:20.168Z,1.80
2022-09-29T05:07:48.238Z,1.70
2022-09-29T05:10:15.154Z,1.60
2022-09-29T05:12:48.530Z,1.60
2022-09-29T05:15:15.788Z,1.60
2022-09-29T05:17:43.365Z,1.60
2022-09-29T05:20:10.190Z,1.60
2022-09-29T05:22:36.949Z,1.70
2022-09-29T05:25:06.788Z,1.60
2022-09-29T05:27:33.501Z,1.60
2022-09-29T05:30:00.225Z,1.80
2022-09-29T05:32:27.559Z,1.80
2022-09-29T05:34:54.276Z,1.90
2022-09-29T05:37:21.007Z,1.90
2022-09-29T05:39:48.348Z,1.80
2022-09-29T05:42:16.455Z,1.80
2022-09-29T05:44:43.192Z,1.80
2022-09-29T05:47:10.518Z,1.90
2022-09-29T05:49:37.262Z,1.90
2022-09-29T05:52:04.006Z,1.90
2022-09-29T05:54:31.345Z,1.90
2022-09-29T05:56:58.120Z,1.90
2022-09-29T05:59:26.255Z,2.00
2022-09-29T06:01:53.692Z,2.00
2022-09-29T06:04:20.485Z,2.10
2022-09-29T06:06:47.226Z,2.10
2022-09-29T06:09:14.623Z,2.10
2022-09-29T06:11:41.408Z,2.10
2022-09-29T06:14:08.170Z,2.10
2022-09-29T06:16:36.903Z,2.00
2022-09-29T06:19:04.663Z,2.00
2022-09-29T06:21:31.994Z,2.00
2022-09-29T06:23:59.359Z,2.10
2022-09-29T06:26:27.731Z,2.10
2022-09-29T06:28:54.888Z,2.20
2022-09-29T06:31:24.212Z,2.20
2022-09-29T06:33:52.742Z,2.20
2022-09-29T06:36:21.879Z,2.30
2022-09-29T06:38:49.243Z,2.30
2022-09-29T06:41:15.953Z,2.30
2022-09-29T06:43:42.655Z,2.30
2022-09-29T06:46:10.066Z,2.40
2022-09-29T06:48:36.814Z,2.40
2022-09-29T06:51:10.348Z,2.60
2022-09-29T06:53:39.072Z,2.60
2022-09-29T06:56:07.139Z,2.80
2022-09-29T06:58:33.875Z,2.80
2022-09-29T07:01:02.086Z,2.90
2022-09-29T07:03:29.077Z,3.00
2022-09-29T07:06:18.841Z,3.20
2022-09-29T07:08:44.640Z,3.30
2022-09-29T07:11:11.442Z,3.50
2022-09-29T07:13:38.876Z,3.60
2022-09-29T07:16:07.300Z,3.70
2022-09-29T07:18:34.361Z,3.80
2022-09-29T07:21:01.215Z,4.00
2022-09-29T07:23:28.580Z,4.00
2022-09-29T07:25:56.734Z,4.30
2022-09-29T07:28:24.145Z,4.30
2022-09-29T07:31:11.513Z,4.50
2022-09-29T07:33:41.499Z,4.60
2022-09-29T07:36:09.063Z,4.70
2022-09-29T07:38:35.781Z,4.80
2022-09-29T07:41:06.214Z,5.10
2022-09-29T07:43:34.144Z,5.00
2022-09-29T07:46:01.182Z,5.10
2022-09-29T07:48:33.446Z,5.00
2022-09-29T07:51:01.411Z,5.20
2022-09-29T07:53:30.672Z,5.50
2022-09-29T07:56:03.851Z,5.40
2022-09-29T07:58:31.536Z,5.30
2022-09-29T08:00:58.644Z,5.80
2022-09-29T08:03:25.545Z,6.10
2022-09-29T08:05:53.272Z,6.10
2022-09-29T08:08:19.995Z,6.20
2022-09-29T08:10:52.755Z,6.50
2022-09-29T08:13:21.846Z,6.10
2022-09-29T08:15:48.588Z,6.60
2022-09-29T08:18:15.318Z,6.60
2022-09-29T08:20:42.658Z,6.80
2022-09-29T08:23:09.429Z,7.00
2022-09-29T08:25:36.202Z,6.90
2022-09-29T08:28:03.530Z,7.20
2022-09-29T08:30:31.631Z,7.40
2022-09-29T08:32:58.343Z,7.40
2022-09-29T08:35:25.751Z,7.40
2022-09-29T08:37:53.729Z,7.80
2022-09-29T08:40:20.689Z,7.80
2022-09-29T08:43:00.796Z,8.00
2022-09-29T08:45:33.393Z,8.10
2022-09-29T08:48:16.943Z,8.50
2022-09-29T08:50:50.689Z,8.70
2022-09-29T08:53:28.289Z,8.90
2022-09-29T08:55:59.896Z,9.00
2022-09-29T08:58:27.635Z,9.20
2022-09-29T09:01:10.667Z,9.40
2022-09-29T09:04:17.230Z,9.10
2022-09-29T09:06:55.958Z,9.60
2022-09-29T09:09:38.227Z,9.80
2022-09-29T09:12:23.509Z,9.90
2022-09-29T09:15:05.615Z,10.00
2022-09-29T09:17:49.923Z,9.90
2022-09-29T09:20:29.094Z,10.30
2022-09-29T09:22:57.451Z,10.60
2022-09-29T09:25:28.472Z,11.30
2022-09-29T09:28:03.924Z,10.80
2022-09-29T09:30:38.870Z,10.50
2022-09-29T09:33:27.107Z,10.50
2022-09-29T09:36:02.268Z,10.60
2022-09-29T09:38:41.406Z,11.10
2022-09-29T09:41:10.162Z,11.40
2022-09-29T09:43:41.712Z,11.60
2022-09-29T09:46:17.632Z,11.90
2022-09-29T09:48:52.677Z,11.10
2022-09-29T09:51:33.464Z,11.90
2022-09-29T09:54:04.758Z,11.80
2022-09-29T09:56:55.833Z,11.40
2022-09-29T09:59:35.587Z,11.40
2022-09-29T10:02:03.486Z,11.70
2022-09-29T10:04:33.396Z,12.10
2022-09-29T10:07:00.305Z,11.60
2022-09-29T10:09:28.710Z,11.30
2022-09-29T10:11:55.583Z,12.70
2022-09-29T10:14:25.225Z,12.60
2022-09-29T10:16:56.684Z,12.30
2022-09-29T10:19:24.336Z,11.50
2022-09-29T10:21:52.417Z,12.20
2022-09-29T10:24:27.131Z,12.40
2022-09-29T10:26:56.559Z,12.00
2022-09-29T10:29:28.907Z,12.50
2022-09-29T10:32:05.087Z,12.10
2022-09-29T10:34:33.971Z,11.90
2022-09-29T10:37:04.755Z,12.80
2022-09-29T10:39:42.337Z,13.00
2022-09-29T10:42:31.852Z,13.50
2022-09-29T10:45:10.645Z,13.80
2022-09-29T10:47:39.891Z,13.10
2022-09-29T10:50:16.477Z,13.20
2022-09-29T10:52:49.092Z,13.50
2022-09-29T10:55:19.522Z,14.10
2022-09-29T10:57:47.261Z,13.80
2022-09-29T11:00:32.543Z,14.00
2022-09-29T11:03:07.291Z,13.50
2022-09-29T11:05:35.462Z,13.00
2022-09-29T11:08:04.131Z,13.20
2022-09-29T11:10:33.269Z,14.20
2022-09-29T11:13:24.603Z,14.30
2022-09-29T11:15:52.618Z,13.50
2022-09-29T11:18:22.865Z,13.70
2022-09-29T11:20:57.517Z,14.10
2022-09-29T11:23:33.402Z,13.40
2022-09-29T11:26:21.667Z,14.60
2022-09-29T11:29:07.991Z,14.10
2022-09-29T11:31:46.429Z,14.60
2022-09-29T11:34:35.206Z,13.40
2022-09-29T11:37:12.238Z,12.50
2022-09-29T11:39:54.510Z,13.30
2022-09-29T11:42:46.376Z,14.00
2022-09-29T11:45:15.640Z,14.50
2022-09-29T11:48:30.019Z,14.20
2022-09-29T11:51:08.642Z,15.00
2022-09-29T11:53:54.971Z,15.00
2022-09-29T11:56:33.218Z,14.40
2022-09-29T11:59:13.130Z,15.00
2022-09-29T12:01:58.528Z,15.40
2022-09-29T12:04:38.179Z,16.30
2022-09-29T12:07:19.321Z,15.70
2022-09-29T12:10:04.330Z,14.30
2022-09-29T12:12:40.731Z,14.50
2022-09-29T12:15:20.125Z,15.70
2022-09-29T12:17:50.878Z,15.60
2022-09-29T12:20:21.680Z,16.80
2022-09-29T12:22:51.058Z,15.80
2022-09-29T12:25:19.789Z,15.40
2022-09-29T12:27:49.371Z,15.80
2022-09-29T12:30:22.824Z,16.00
2022-09-29T12:32:54.671Z,16.30
2022-09-29T12:35:29.072Z,16.70
2022-09-29T12:38:06.368Z,16.40
2022-09-29T12:40:46.384Z,14.80
2022-09-29T12:43:19.773Z,14.10
2022-09-29T12:45:57.152Z,13.50
2022-09-29T12:48:35.236Z,12.90
2022-09-29T12:51:09.602Z,12.90
2022-09-29T12:53:42.534Z,12.70
2022-09-29T12:56:13.904Z,12.90
2022-09-29T12:58:47.379Z,12.80
2022-09-29T13:01:23.272Z,12.50
2022-09-29T13:04:19.477Z,12.60
2022-09-29T13:07:04.049Z,13.30
2022-09-29T13:09:47.652Z,13.90
2022-09-29T13:12:48.297Z,14.90
2022-09-29T13:15:46.035Z,15.50
2022-09-29T13:19:00.116Z,15.90
2022-09-29T13:21:41.779Z,16.30
2022-09-29T13:24:34.024Z,17.50
2022-09-29T13:27:17.621Z,15.50
2022-09-29T13:29:49.350Z,16.50
2022-09-29T13:32:18.303Z,17.40
2022-09-29T13:34:52.139Z,17.20
2022-09-29T13:37:20.971Z,17.80
2022-09-29T13:39:59.500Z,17.60
2022-09-29T13:42:41.646Z,17.30
2022-09-29T13:45:39.955Z,17.10
2022-09-29T13:48:46.333Z,15.60
2022-09-29T13:51:49.254Z,15.10
2022-09-29T13:54:24.718Z,14.70
2022-09-29T13:57:04.598Z,14.80
2022-09-29T13:59:31.837Z,15.30
2022-09-29T14:02:00.211Z,15.20
2022-09-29T14:04:42.623Z,15.50
2022-09-29T14:07:34.256Z,15.10
2022-09-29T14:10:13.722Z,15.30
2022-09-29T14:12:42.227Z,15.00
2022-09-29T14:15:20.479Z,15.60
2022-09-29T14:17:54.198Z,14.80
2022-09-29T14:20:24.611Z,15.70
2022-09-29T14:23:08.438Z,15.30
2022-09-29T14:25:53.009Z,14.80
2022-09-29T14:28:34.640Z,14.40
2022-09-29T14:31:02.202Z,14.30
2022-09-29T14:33:34.641Z,14.60
2022-09-29T14:36:06.020Z,14.00
2022-09-29T14:38:37.792Z,14.90
2022-09-29T14:41:20.641Z,15.00
2022-09-29T14:43:50.207Z,15.30
2022-09-29T14:46:44.077Z,15.20
2022-09-29T14:49:34.109Z,14.60
2022-09-29T14:52:09.706Z,15.20
2022-09-29T14:54:46.838Z,14.90
2022-09-29T14:57:29.116Z,15.40
2022-09-29T15:00:04.762Z,15.20
2022-09-29T15:02:33.708Z,15.00
2022-09-29T15:05:12.435Z,14.70
2022-09-29T15:07:41.622Z,15.10
2022-09-29T15:10:21.598Z,15.30
2022-09-29T15:12:48.500Z,15.20
2022-09-29T15:15:29.696Z,15.40
2022-09-29T15:18:02.303Z,15.60
2022-09-29T15:20:33.432Z,15.60
2022-09-29T15:23:11.995Z,15.10
2022-09-29T15:25:42.419Z,15.30
2022-09-29T15:28:15.180Z,14.60
2022-09-29T15:30:43.378Z,14.70
2022-09-29T15:33:19.955Z,15.00
2022-09-29T15:35:51.050Z,14.50
2022-09-29T15:38:31.620Z,14.30
2022-09-29T15:41:03.727Z,13.70
2022-09-29T15:43:38.423Z,13.60
2022-09-29T15:46:16.013Z,13.70
2022-09-29T15:49:02.397Z,14.00
2022-09-29T15:51:29.912Z,13.90
2022-09-29T15:53:56.836Z,13.60
2022-09-29T15:56:25.940Z,13.80
2022-09-29T15:58:54.968Z,13.60
2022-09-29T16:01:21.858Z,13.40
2022-09-29T16:03:52.142Z,13.30
2022-09-29T16:06:28.197Z,13.10
2022-09-29T16:08:58.077Z,13.20
2022-09-29T16:11:30.556Z,13.20
2022-09-29T16:14:02.320Z,13.20
2022-09-29T16:16:34.368Z,12.80
2022-09-29T16:19:06.104Z,12.80
2022-09-29T16:21:36.065Z,12.70
2022-09-29T16:24:08.133Z,12.60
2022-09-29T16:26:38.307Z,12.50
2022-09-29T16:29:22.873Z,12.60
2022-09-29T16:31:51.334Z,12.50
2022-09-29T16:34:30.016Z,12.20
2022-09-29T16:36:59.561Z,12.10
2022-09-29T16:39:27.342Z,12.00
2022-09-29T16:41:58.179Z,11.90
2022-09-29T16:44:29.166Z,11.80
2022-09-29T16:46:58.825Z,11.70
2022-09-29T16:49:31.696Z,11.50
2022-09-29T16:52:02.026Z,11.40
2022-09-29T16:54:32.693Z,11.20
2022-09-29T16:57:21.052Z,11.10
2022-09-29T16:59:50.992Z,10.90
2022-09-29T17:02:19.873Z,10.70
2022-09-29T17:04:46.532Z,10.60
2022-09-29T17:07:15.545Z,10.40
2022-09-29T17:09:45.794Z,10.30
2022-09-29T17:12:14.619Z,10.10
2022-09-29T17:14:43.171Z,9.90
2022-09-29T17:17:16.267Z,9.80
2022-09-29T17:19:44.236Z,9.70
2022-09-29T17:22:23.923Z,9.60
2022-09-29T17:24:51.318Z,9.40
2022-09-29T17:27:18.376Z,9.30
2022-09-29T17:29:46.444Z,9.20
2022-09-29T17:32:14.919Z,9.10
2022-09-29T17:34:41.944Z,8.90
2022-09-29T17:37:09.519Z,8.80
2022-09-29T17:39:36.867Z,8.50
2022-09-29T17:42:03.758Z,8.40
2022-09-29T17:44:30.963Z,8.20
2022-09-29T17:47:11.219Z,7.90
2022-09-29T17:49:46.683Z,8.00
2022-09-29T17:52:15.079Z,8.00
2022-09-29T17:54:42.052Z,8.10
2022-09-29T17:57:20.734Z,7.90
2022-09-29T17:59:48.154Z,7.80
2022-09-29T18:02:16.643Z,7.80
2022-09-29T18:04:43.571Z,7.80
2022-09-29T18:07:12.099Z,7.70
2022-09-29T18:09:40.141Z,7.60
2022-09-29T18:12:06.930Z,7.50
2022-09-29T18:14:34.462Z,7.40
2022-09-29T18:17:01.490Z,7.30
2022-09-29T18:19:29.737Z,7.20
2022-09-29T18:21:57.940Z,7.10
2022-09-29T18:24:25.275Z,7.10
2022-09-29T18:26:51.969Z,7.10
2022-09-29T18:29:19.340Z,7.10
2022-09-29T18:31:46.294Z,7.00
2022-09-29T18:34:15.428Z,7.10
2022-09-29T18:36:47.492Z,7.00
2022-09-29T18:39:14.453Z,7.00
2022-09-29T18:41:41.581Z,6.90
2022-09-29T18:44:13.363Z,6.80
2022-09-29T18:46:40.501Z,6.60
2022-09-29T18:49:07.514Z,6.60
2022-09-29T18:51:34.847Z,6.50
2022-09-29T18:54:03.011Z,6.50
2022-09-29T18:56:29.736Z,6.30
2022-09-29T18:58:57.118Z,6.20
2022-09-29T19:01:25.412Z,6.30
2022-09-29T19:03:52.292Z,6.30
2022-09-29T19:06:19.890Z,6.40
2022-09-29T19:08:49.282Z,6.40
2022-09-29T19:11:19.227Z,6.30
2022-09-29T19:13:46.903Z,6.20
2022-09-29T19:16:13.702Z,6.30
2022-09-29T19:18:41.775Z,6.20
2022-09-29T19:21:11.067Z,6.10
2022-09-29T19:23:38.749Z,6.00
2022-09-29T19:26:09.781Z,6.00
2022-09-29T19:28:39.061Z,5.80
2022-09-29T19:31:14.418Z,5.90
2022-09-29T19:33:43.019Z,5.90
2022-09-29T19:36:14.562Z,5.70
2022-09-29T19:38:42.396Z,5.90
2022-09-29T19:41:14.347Z,5.60
2022-09-29T19:43:43.486Z,5.80
2022-09-29T19:46:10.661Z,5.70
2022-09-29T19:48:37.755Z,5.60
2022-09-29T19:51:05.279Z,5.70
2022-09-29T19:53:34.151Z,5.60
2022-09-29T19:56:00.917Z,5.70
2022-09-29T19:58:28.410Z,5.60
2022-09-29T20:00:57.656Z,5.60
2022-09-29T20:03:27.340Z,5.50
2022-09-29T20:05:59.001Z,5.40
2022-09-29T20:08:25.864Z,5.40
2022-09-29T20:10:52.696Z,5.30
2022-09-29T20:13:20.208Z,5.20
2022-09-29T20:15:46.993Z,5.30
2022-09-29T20:18:15.144Z,5.10
2022-09-29T20:20:42.500Z,5.20
2022-09-29T20:23:09.590Z,5.00
2022-09-29T20:25:36.321Z,5.00
2022-09-29T20:28:04.826Z,4.90
2022-09-29T20:30:31.562Z,5.20
2022-09-29T20:32:58.298Z,5.30
2022-09-29T20:35:27.161Z,5.20
2022-09-29T20:37:53.960Z,5.30
2022-09-29T20:40:22.959Z,5.30
2022-09-29T20:43:02.484Z,5.10
2022-09-29T20:45:29.201Z,5.10
2022-09-29T20:47:56.570Z,5.10
2022-09-29T20:50:23.362Z,5.00
2022-09-29T20:52:55.768Z,4.80
2022-09-29T20:55:23.208Z,4.90
2022-09-29T20:57:49.952Z,4.90
2022-09-29T21:00:16.811Z,4.70
2022-09-29T21:02:49.882Z,4.60
2022-09-29T21:05:19.594Z,4.80
2022-09-29T21:07:51.438Z,4.80
2022-09-29T21:10:18.577Z,4.60
2022-09-29T21:12:45.330Z,4.60
2022-09-29T21:15:12.808Z,4.70
2022-09-29T21:17:39.628Z,4.70
2022-09-29T21:20:07.357Z,4.60
2022-09-29T21:22:34.755Z,4.70
2022-09-29T21:25:03.061Z,4.60
2022-09-29T21:27:29.917Z,4.70
2022-09-29T21:29:57.379Z,4.70
2022-09-29T21:32:24.265Z,4.60
2022-09-29T21:34:51.028Z,4.50
2022-09-29T21:37:18.412Z,4.30
2022-09-29T21:39:45.203Z,4.20
2022-09-29T21:42:13.334Z,4.10
2022-09-29T21:44:40.724Z,4.20
2022-09-29T21:47:07.493Z,4.30
2022-09-29T21:49:34.338Z,4.30
2022-09-29T21:52:02.349Z,4.30
2022-09-29T21:54:29.287Z,4.40
2022-09-29T21:56:56.092Z,4.40
2022-09-29T21:59:24.866Z,4.20
2022-09-29T22:01:51.876Z,4.00
2022-09-29T22:04:19.188Z,4.00
2022-09-29T22:06:46.764Z,4.10
2022-09-29T22:09:17.013Z,4.20
2022-09-29T22:11:45.690Z,4.40
2022-09-29T22:14:14.539Z,4.30
2022-09-29T22:16:43.056Z,4.40
2022-09-29T22:19:26.369Z,4.50
2022-09-29T22:21:54.355Z,4.20
2022-09-29T22:24:21.413Z,4.00
2022-09-29T22:26:48.472Z,3.80
2022-09-29T22:29:15.993Z,3.80
2022-09-29T22:31:44.275Z,3.60
2022-09-29T22:34:11.340Z,3.70
2022-09-29T22:36:38.956Z,3.80
2022-09-29T22:39:06.549Z,3.70
2022-09-29T22:41:35.543Z,3.70
2022-09-29T22:44:04.522Z,3.50
2022-09-29T22:46:31.935Z,3.60
2022-09-29T22:49:00.360Z,3.70
2022-09-29T22:51:27.646Z,3.70
2022-09-29T22:53:54.456Z,3.80
2022-09-29T22:56:23.221Z,3.90
2022-09-29T22:58:50.627Z,3.90
2022-09-29T23:01:18.615Z,3.80
2022-09-29T23:03:46.399Z,3.60
2022-09-29T23:06:15.789Z,3.60
2022-09-29T23:08:42.644Z,3.70
2022-09-29T23:11:15.299Z,3.50
2022-09-29T23:13:43.117Z,3.40
2022-09-29T23:16:12.778Z,3.30
2022-09-29T23:18:39.989Z,3.20
2022-09-29T23:21:07.382Z,3.30
2022-09-29T23:23:35.556Z,3.30
2022-09-29T23:26:02.377Z,3.30
2022-09-29T23:28:29.952Z,3.40
2022-09-29T23:31:01.996Z,3.30
2022-09-29T23:33:29.431Z,3.20
2022-09-29T23:36:03.667Z,3.20
2022-09-29T23:38:31.154Z,3.40
2022-09-29T23:40:59.629Z,3.20
2022-09-29T23:43:26.433Z,3.10
2022-09-29T23:45:53.830Z,3.30
2022-09-29T23:48:20.647Z,3.10
2022-09-29T23:50:47.443Z,3.50
2022-09-29T23:53:14.980Z,3.30
2022-09-29T23:55:41.925Z,3.40
2022-09-29T23:58:10.129Z,3.40
